Terminal Aerodrome Forecast
Issued by NWS

Home | Current Version | Previous Version | Text Only | Print | Product List | Glossary On
Versions: 1 2 3 4 5 6 7 8 9 10 11 12
000
FTUS45 KCYS 181739
TAFAIA
TAF
KAIA 181739Z 1818/1918 01018G28KT P6SM BKN150
     FM182200 03015G23KT P6SM OVC015
     FM190500 03018G28KT 3SM -SN OVC015=

USA.gov is the U.S. government's official web portal to all federal, state and local government web resources and services.